createdAt,value
2022-10-02T00:01:52.480Z,52.80
2022-10-02T00:04:28.288Z,52.80
2022-10-02T00:07:06.946Z,52.80
2022-10-02T00:09:47.689Z,53.20
2022-10-02T00:12:21.356Z,53.20
2022-10-02T00:14:58.704Z,53.70
2022-10-02T00:17:34.565Z,53.50
2022-10-02T00:20:08.863Z,53.80
2022-10-02T00:22:52.452Z,53.30
2022-10-02T00:25:30.042Z,53.50
2022-10-02T00:28:22.253Z,53.50
2022-10-02T00:31:17.846Z,53.40
2022-10-02T00:34:05.086Z,53.50
2022-10-02T00:36:50.221Z,53.40
2022-10-02T00:39:39.856Z,53.20
2022-10-02T00:42:56.664Z,53.10
2022-10-02T00:45:54.856Z,53.10
2022-10-02T00:49:03.615Z,53.80
2022-10-02T00:51:57.705Z,53.00
2022-10-02T00:55:17.414Z,52.90
2022-10-02T00:58:09.366Z,52.90
2022-10-02T01:00:39.214Z,53.20
2022-10-02T01:03:19.135Z,53.00
2022-10-02T01:05:48.031Z,53.30
2022-10-02T01:08:18.320Z,54.30
2022-10-02T01:10:49.138Z,54.00
2022-10-02T01:13:18.404Z,54.40
2022-10-02T01:15:54.643Z,54.00
2022-10-02T01:18:24.018Z,53.80
2022-10-02T01:20:59.764Z,53.70
2022-10-02T01:23:37.603Z,54.00
2022-10-02T01:26:08.124Z,55.70
2022-10-02T01:28:36.931Z,56.40
2022-10-02T01:31:12.659Z,57.10
2022-10-02T01:33:44.259Z,58.70
2022-10-02T01:36:16.054Z,59.20
2022-10-02T01:38:48.467Z,58.90
2022-10-02T01:41:18.627Z,58.70
2022-10-02T01:43:52.734Z,58.50
2022-10-02T01:46:41.143Z,58.40
2022-10-02T01:49:36.023Z,57.90
2022-10-02T01:52:23.801Z,58.20
2022-10-02T01:55:17.976Z,58.70
2022-10-02T01:58:05.159Z,58.10
2022-10-02T02:00:53.013Z,57.60
2022-10-02T02:03:31.597Z,56.70
2022-10-02T02:06:10.750Z,56.10
2022-10-02T02:08:48.608Z,55.70
2022-10-02T02:11:21.680Z,55.20
2022-10-02T02:13:59.780Z,54.60
2022-10-02T02:16:37.260Z,54.30
2022-10-02T02:19:13.535Z,54.30
2022-10-02T02:21:48.738Z,54.30
2022-10-02T02:24:24.740Z,54.20
2022-10-02T02:27:00.391Z,54.10
2022-10-02T02:34:11.694Z,54.30
2022-10-02T02:36:46.066Z,54.30
2022-10-02T02:39:19.678Z,54.80
2022-10-02T02:41:56.214Z,55.00
2022-10-02T02:44:31.425Z,55.30
2022-10-02T02:47:08.974Z,56.80
2022-10-02T02:49:51.930Z,57.30
2022-10-02T02:52:27.336Z,57.90
2022-10-02T02:55:04.619Z,57.90
2022-10-02T02:57:42.621Z,58.00
2022-10-02T03:00:15.944Z,60.50
2022-10-02T03:02:44.567Z,60.00
2022-10-02T03:05:20.046Z,60.30
2022-10-02T03:07:55.792Z,60.30
2022-10-02T03:10:41.751Z,58.80
2022-10-02T03:13:30.603Z,58.70
2022-10-02T03:16:17.121Z,58.60
2022-10-02T03:19:11.660Z,58.40
2022-10-02T03:21:55.834Z,58.10
2022-10-02T03:24:31.917Z,57.50
2022-10-02T03:27:09.839Z,58.10
2022-10-02T03:29:46.413Z,57.90
2022-10-02T03:32:19.328Z,57.60
2022-10-02T03:34:49.756Z,57.50
2022-10-02T03:37:21.167Z,57.10
2022-10-02T03:39:51.712Z,56.40
2022-10-02T03:42:27.028Z,56.10
2022-10-02T03:44:55.543Z,55.90
2022-10-02T03:47:24.459Z,55.60
2022-10-02T03:49:53.072Z,55.10
2022-10-02T03:52:24.969Z,55.30
2022-10-02T03:54:58.815Z,54.90
2022-10-02T03:57:27.801Z,54.70
2022-10-02T04:00:04.979Z,54.60
2022-10-02T04:02:41.555Z,55.00
2022-10-02T04:05:22.635Z,55.90
2022-10-02T04:07:59.049Z,56.70
2022-10-02T04:10:37.776Z,56.80
2022-10-02T04:13:17.163Z,57.30
2022-10-02T04:16:05.368Z,56.70
2022-10-02T04:18:43.623Z,57.20
2022-10-02T04:21:27.367Z,59.50
2022-10-02T04:24:05.619Z,58.90
2022-10-02T04:26:40.831Z,58.40
2022-10-02T04:29:23.321Z,57.80
2022-10-02T04:31:59.545Z,60.00
2022-10-02T04:34:29.381Z,60.80
2022-10-02T04:37:21.933Z,60.00
2022-10-02T04:40:12.578Z,60.60
2022-10-02T04:44:23.953Z,62.50
2022-10-02T04:47:16.961Z,61.30
2022-10-02T04:50:21.701Z,60.30
2022-10-02T04:53:26.241Z,59.60
2022-10-02T04:56:51.985Z,59.80
2022-10-02T04:59:43.377Z,59.40
2022-10-02T05:02:36.963Z,59.50
2022-10-02T05:05:29.821Z,59.30
2022-10-02T05:08:22.159Z,60.40
2022-10-02T05:11:13.337Z,61.00
2022-10-02T05:14:14.615Z,61.20
2022-10-02T05:17:00.294Z,60.70
2022-10-02T05:20:00.401Z,59.70
2022-10-02T05:23:02.018Z,59.10
2022-10-02T05:25:54.361Z,59.60
2022-10-02T05:28:54.583Z,59.70
2022-10-02T05:31:42.725Z,59.40
2022-10-02T05:34:38.849Z,59.20
2022-10-02T05:37:30.565Z,60.30
2022-10-02T05:40:08.328Z,60.50
2022-10-02T05:42:46.883Z,60.00
2022-10-02T05:45:28.331Z,60.80
2022-10-02T05:48:11.448Z,61.20
2022-10-02T05:50:42.671Z,61.40
2022-10-02T05:53:32.889Z,61.20
2022-10-02T05:56:10.089Z,62.90
2022-10-02T05:58:51.483Z,63.60
2022-10-02T06:06:03.921Z,64.30
2022-10-02T06:08:41.929Z,63.10
2022-10-02T06:11:21.368Z,64.00
2022-10-02T06:13:55.916Z,64.50
2022-10-02T06:21:06.893Z,63.00
2022-10-02T06:23:41.648Z,62.50
2022-10-02T06:26:17.575Z,62.80
2022-10-02T06:28:54.266Z,63.10
2022-10-02T06:31:31.446Z,63.70
2022-10-02T06:34:00.421Z,65.00
2022-10-02T06:37:04.490Z,63.50
2022-10-02T06:41:11.958Z,63.50
2022-10-02T06:43:59.327Z,63.20
2022-10-02T06:46:43.133Z,63.70
2022-10-02T06:49:26.858Z,63.50
2022-10-02T06:52:13.427Z,62.60
2022-10-02T06:55:02.718Z,63.20
2022-10-02T06:58:01.318Z,66.10
2022-10-02T07:00:35.328Z,66.90
2022-10-02T07:03:43.100Z,66.10
2022-10-02T07:06:36.971Z,65.90
2022-10-02T07:09:53.597Z,64.70
2022-10-02T07:12:56.409Z,62.90
2022-10-02T07:15:53.226Z,63.00
2022-10-02T07:18:37.270Z,62.80
2022-10-02T07:21:17.061Z,63.00
2022-10-02T07:24:02.249Z,63.50
2022-10-02T07:26:50.274Z,63.70
2022-10-02T07:29:39.125Z,65.30
2022-10-02T07:36:56.873Z,66.40
2022-10-02T07:39:43.683Z,65.80
2022-10-02T07:42:41.727Z,65.40
2022-10-02T07:45:30.202Z,64.70
2022-10-02T07:48:35.991Z,65.60
2022-10-02T07:51:42.494Z,64.50
2022-10-02T07:54:31.688Z,64.00
2022-10-02T07:57:21.325Z,62.40
2022-10-02T07:59:55.676Z,61.20
2022-10-02T08:02:34.179Z,60.40
2022-10-02T08:05:09.972Z,61.10
2022-10-02T08:07:38.840Z,61.60
2022-10-02T08:10:15.026Z,63.60
2022-10-02T08:12:55.259Z,63.10
2022-10-02T08:15:29.761Z,63.50
2022-10-02T08:18:23.198Z,62.10
2022-10-02T08:20:54.795Z,62.00
2022-10-02T08:23:29.230Z,62.90
2022-10-02T08:26:08.291Z,63.10
2022-10-02T08:28:46.392Z,62.40
2022-10-02T08:31:16.466Z,61.80
2022-10-02T08:33:45.548Z,61.50
2022-10-02T08:36:45.548Z,61.50
2022-10-02T08:39:50.535Z,61.50
2022-10-02T08:42:58.958Z,62.40
2022-10-02T08:46:02.484Z,60.80
2022-10-02T08:49:37.696Z,60.30
2022-10-02T08:52:54.488Z,61.40
2022-10-02T08:56:03.452Z,60.10
2022-10-02T08:59:18.315Z,59.40
2022-10-02T09:02:38.387Z,60.20
2022-10-02T09:10:27.121Z,59.10
2022-10-02T09:13:48.127Z,58.40
2022-10-02T09:16:30.156Z,58.10
2022-10-02T09:19:04.322Z,58.00
2022-10-02T09:21:56.078Z,56.90
2022-10-02T09:25:14.399Z,58.20
2022-10-02T09:28:26.609Z,58.10
2022-10-02T09:31:32.222Z,59.20
2022-10-02T09:34:43.362Z,60.00
2022-10-02T09:38:14.306Z,58.60
2022-10-02T09:41:23.670Z,59.80
2022-10-02T09:44:49.064Z,57.70
2022-10-02T09:48:10.964Z,55.40
2022-10-02T09:51:57.245Z,50.40
2022-10-02T09:55:43.055Z,48.10
2022-10-02T09:59:03.901Z,47.70
2022-10-02T10:06:55.296Z,46.60
2022-10-02T10:10:07.987Z,49.30
2022-10-02T10:13:36.294Z,52.20
2022-10-02T10:16:47.207Z,53.60
2022-10-02T10:20:11.378Z,55.10
2022-10-02T10:23:26.122Z,54.30
2022-10-02T10:26:44.086Z,50.90
2022-10-02T10:35:04.438Z,49.40
2022-10-02T10:43:14.371Z,52.00
2022-10-02T10:46:11.482Z,50.20
2022-10-02T10:49:11.448Z,51.20
2022-10-02T10:51:49.873Z,51.70
2022-10-02T10:54:54.124Z,51.80
2022-10-02T10:57:53.207Z,53.30
2022-10-02T11:00:25.941Z,55.40
2022-10-02T11:03:33.267Z,55.10
2022-10-02T11:06:36.722Z,55.10
2022-10-02T11:09:42.809Z,55.60
2022-10-02T11:13:00.439Z,56.70
2022-10-02T11:16:07.558Z,56.40
2022-10-02T11:19:11.817Z,57.00
2022-10-02T11:22:30.094Z,56.70
2022-10-02T11:26:07.919Z,56.10
2022-10-02T11:29:21.866Z,53.40
2022-10-02T11:32:19.432Z,54.30
2022-10-02T11:35:24.705Z,53.40
2022-10-02T11:38:32.605Z,53.20
2022-10-02T11:41:39.226Z,53.50
2022-10-02T11:44:32.983Z,52.70
2022-10-02T11:47:34.854Z,52.30
2022-10-02T11:50:41.366Z,52.70
2022-10-02T11:53:37.940Z,52.40
2022-10-02T11:56:31.222Z,53.10
2022-10-02T11:59:28.428Z,54.30
2022-10-02T12:02:08.609Z,54.10
2022-10-02T12:04:52.581Z,52.80
2022-10-02T12:07:41.616Z,53.60
2022-10-02T12:10:34.069Z,52.90
2022-10-02T12:13:29.997Z,54.60
2022-10-02T12:16:11.833Z,55.00
2022-10-02T12:18:58.445Z,54.30
2022-10-02T12:22:07.577Z,54.30
2022-10-02T12:25:08.810Z,53.80
2022-10-02T12:27:53.538Z,53.80
2022-10-02T12:30:25.708Z,52.90
2022-10-02T12:33:22.614Z,53.40
2022-10-02T12:36:15.525Z,53.40
2022-10-02T12:39:05.452Z,53.50
2022-10-02T12:42:00.095Z,56.80
2022-10-02T12:44:56.443Z,56.50
2022-10-02T12:47:49.341Z,55.60
2022-10-02T12:50:36.747Z,55.00
2022-10-02T12:54:11.160Z,55.20
2022-10-02T12:57:36.662Z,54.40
2022-10-02T13:00:15.702Z,54.80
2022-10-02T13:03:33.584Z,52.60
2022-10-02T13:06:53.123Z,52.60
2022-10-02T13:09:37.113Z,52.90
2022-10-02T13:12:23.833Z,53.90
2022-10-02T13:15:29.174Z,55.20
2022-10-02T13:18:18.484Z,56.70
2022-10-02T13:21:02.871Z,57.50
2022-10-02T13:28:36.448Z,57.30
2022-10-02T13:31:22.364Z,57.10
2022-10-02T13:34:26.057Z,56.50
2022-10-02T13:37:15.481Z,56.10
2022-10-02T13:40:04.545Z,54.10
2022-10-02T13:42:52.906Z,54.70
2022-10-02T13:45:33.418Z,55.40
2022-10-02T13:48:16.596Z,53.90
2022-10-02T13:50:58.188Z,54.30
2022-10-02T13:54:01.054Z,54.30
2022-10-02T13:56:47.792Z,53.80
2022-10-02T13:59:37.825Z,53.40
2022-10-02T14:02:34.932Z,54.70
2022-10-02T14:05:15.996Z,54.70
2022-10-02T14:08:13.900Z,54.10
2022-10-02T14:11:00.162Z,53.40
2022-10-02T14:13:49.625Z,54.90
2022-10-02T14:16:44.761Z,53.70
2022-10-02T14:19:57.181Z,54.80
2022-10-02T14:23:03.180Z,54.00
2022-10-02T14:25:49.028Z,56.30
2022-10-02T14:33:06.179Z,55.90
2022-10-02T14:35:55.168Z,54.90
2022-10-02T14:38:49.719Z,55.60
2022-10-02T14:41:49.375Z,55.20
2022-10-02T14:44:55.787Z,54.80
2022-10-02T14:47:52.688Z,54.20
2022-10-02T14:50:52.731Z,53.70
2022-10-02T14:53:50.412Z,53.80
2022-10-02T14:56:54.311Z,53.30
2022-10-02T15:00:08.631Z,53.70
2022-10-02T15:03:24.865Z,54.00
2022-10-02T15:06:23.818Z,53.00
2022-10-02T15:09:00.176Z,54.00
2022-10-02T15:11:54.450Z,54.10
2022-10-02T15:14:35.389Z,53.50
2022-10-02T15:17:32.506Z,52.90
2022-10-02T15:20:13.469Z,52.60
2022-10-02T15:22:57.197Z,53.10
2022-10-02T15:25:45.386Z,52.60
2022-10-02T15:28:42.838Z,52.80
2022-10-02T15:31:25.604Z,52.00
2022-10-02T15:34:12.343Z,51.90
2022-10-02T15:37:06.126Z,51.60
2022-10-02T15:40:11.939Z,51.50
2022-10-02T15:42:53.219Z,51.50
2022-10-02T15:46:04.032Z,51.50
2022-10-02T15:49:01.175Z,51.30
2022-10-02T15:51:51.561Z,51.80
2022-10-02T15:54:39.940Z,51.00
2022-10-02T15:57:34.157Z,52.00
2022-10-02T16:00:16.087Z,52.20
2022-10-02T16:03:13.381Z,52.50
2022-10-02T16:05:54.497Z,52.30
2022-10-02T16:09:27.419Z,51.80
2022-10-02T16:12:16.077Z,51.70
2022-10-02T16:15:02.391Z,51.30
2022-10-02T16:17:57.107Z,51.00
2022-10-02T16:21:02.262Z,51.00
2022-10-02T16:24:02.741Z,51.00
2022-10-02T16:27:02.491Z,50.80
2022-10-02T16:29:45.901Z,50.70
2022-10-02T16:32:31.898Z,50.60
2022-10-02T16:35:21.063Z,50.70
2022-10-02T16:38:00.835Z,50.60
2022-10-02T16:40:42.530Z,50.50
2022-10-02T16:43:38.193Z,50.40
2022-10-02T16:46:14.872Z,50.60
2022-10-02T16:48:56.955Z,50.60
2022-10-02T16:51:45.699Z,50.60
2022-10-02T16:54:25.355Z,50.60
2022-10-02T16:57:02.077Z,50.50
2022-10-02T16:59:43.912Z,50.50
2022-10-02T17:02:22.235Z,50.60
2022-10-02T17:05:14.059Z,50.50
2022-10-02T17:07:58.988Z,50.50
2022-10-02T17:10:53.243Z,50.60
2022-10-02T17:13:37.477Z,50.60
2022-10-02T17:16:18.840Z,50.50
2022-10-02T17:18:57.305Z,50.60
2022-10-02T17:21:40.377Z,51.50
2022-10-02T17:24:32.693Z,50.90
2022-10-02T17:27:36.073Z,51.70
2022-10-02T17:30:16.420Z,51.00
2022-10-02T17:33:15.977Z,51.10
2022-10-02T17:35:56.918Z,51.10
2022-10-02T17:39:19.021Z,51.10
2022-10-02T17:41:56.981Z,51.10
2022-10-02T17:44:45.359Z,52.00
2022-10-02T17:47:55.229Z,51.30
2022-10-02T17:51:19.488Z,51.30
2022-10-02T17:54:37.503Z,52.00
2022-10-02T17:57:44.937Z,51.40
2022-10-02T18:00:21.977Z,51.40
2022-10-02T18:03:31.315Z,51.40
2022-10-02T18:06:18.174Z,51.40
2022-10-02T18:09:29.668Z,51.30
2022-10-02T18:12:53.250Z,51.30
2022-10-02T18:15:40.177Z,51.50
2022-10-02T18:18:34.216Z,51.40
2022-10-02T18:21:27.861Z,51.30
2022-10-02T18:24:23.043Z,51.40
2022-10-02T18:27:28.384Z,51.50
2022-10-02T18:30:12.236Z,52.30
2022-10-02T18:33:24.178Z,51.80
2022-10-02T18:36:12.772Z,52.50
2022-10-02T18:39:02.391Z,51.90
2022-10-02T18:41:56.932Z,51.90
2022-10-02T18:44:55.058Z,51.90
2022-10-02T18:47:45.558Z,51.80
2022-10-02T18:51:57.018Z,52.50
2022-10-02T18:54:41.506Z,52.00
2022-10-02T18:57:43.540Z,51.90
2022-10-02T19:00:21.514Z,52.00
2022-10-02T19:03:25.056Z,52.10
2022-10-02T19:06:07.234Z,52.10
2022-10-02T19:09:06.025Z,52.20
2022-10-02T19:13:17.928Z,52.50
2022-10-02T19:15:52.382Z,52.70
2022-10-02T19:18:23.594Z,53.60
2022-10-02T19:20:59.559Z,53.70
2022-10-02T19:28:02.946Z,54.50
2022-10-02T19:30:35.010Z,56.70
2022-10-02T19:33:09.642Z,57.80
2022-10-02T19:35:45.147Z,58.60
2022-10-02T19:38:28.305Z,60.50
2022-10-02T19:45:34.606Z,59.90
2022-10-02T19:48:09.708Z,61.20
2022-10-02T19:50:46.569Z,60.00
2022-10-02T19:53:25.252Z,59.00
2022-10-02T19:55:58.178Z,58.10
2022-10-02T19:58:37.183Z,57.40
2022-10-02T20:01:15.796Z,57.30
2022-10-02T20:03:48.012Z,56.30
2022-10-02T20:06:23.669Z,56.10
2022-10-02T20:09:02.214Z,56.10
2022-10-02T20:11:39.898Z,55.60
2022-10-02T20:14:16.530Z,55.40
2022-10-02T20:17:02.872Z,55.20
2022-10-02T20:19:38.626Z,55.00
2022-10-02T20:22:18.105Z,54.90
2022-10-02T20:24:54.704Z,54.40
2022-10-02T20:27:34.861Z,54.20
2022-10-02T20:30:14.055Z,54.10
2022-10-02T20:32:50.205Z,53.70
2022-10-02T20:35:29.339Z,53.50
2022-10-02T20:38:02.489Z,53.40
2022-10-02T20:40:36.643Z,53.80
2022-10-02T20:43:15.776Z,53.00
2022-10-02T20:45:53.123Z,53.40
2022-10-02T20:49:08.016Z,53.30
2022-10-02T20:52:20.441Z,53.20
2022-10-02T20:54:59.725Z,53.10
2022-10-02T20:58:27.175Z,53.00
2022-10-02T21:01:18.129Z,52.90
2022-10-02T21:04:25.917Z,52.60
2022-10-02T21:07:35.013Z,52.70
2022-10-02T21:11:09.753Z,52.70
2022-10-02T21:18:58.166Z,55.40
2022-10-02T21:22:26.508Z,56.90
2022-10-02T21:25:36.486Z,57.20
2022-10-02T21:29:10.167Z,57.40
2022-10-02T21:31:58.577Z,58.30
2022-10-02T21:34:48.618Z,58.80
2022-10-02T21:37:29.245Z,58.80
2022-10-02T21:40:47.241Z,59.20
2022-10-02T21:44:00.214Z,58.20
2022-10-02T21:47:02.974Z,56.80
2022-10-02T21:50:32.347Z,57.40
2022-10-02T21:53:51.857Z,57.30
2022-10-02T21:57:40.280Z,56.90
2022-10-02T22:00:16.162Z,57.00
2022-10-02T22:03:33.774Z,57.50
2022-10-02T22:06:27.098Z,57.90
2022-10-02T22:09:32.628Z,58.10
2022-10-02T22:12:22.072Z,59.10
2022-10-02T22:15:05.658Z,58.20
2022-10-02T22:17:52.520Z,59.00
2022-10-02T22:20:48.131Z,58.90
2022-10-02T22:23:40.716Z,59.70
2022-10-02T22:26:37.912Z,58.90
2022-10-02T22:29:16.586Z,58.30
2022-10-02T22:32:26.205Z,57.90
2022-10-02T22:35:11.782Z,57.20
2022-10-02T22:38:05.709Z,57.80
2022-10-02T22:40:52.123Z,57.80
2022-10-02T22:43:31.559Z,57.30
2022-10-02T22:46:08.760Z,57.70
2022-10-02T22:48:47.326Z,57.70
2022-10-02T22:51:25.067Z,57.90
2022-10-02T22:54:05.189Z,58.30
2022-10-02T22:56:43.812Z,57.50
2022-10-02T22:59:20.604Z,59.20
2022-10-02T23:01:59.455Z,58.80
2022-10-02T23:04:38.136Z,58.40
2022-10-02T23:07:17.513Z,57.70
2022-10-02T23:09:57.956Z,58.60
2022-10-02T23:12:38.053Z,58.10
2022-10-02T23:15:31.647Z,58.10
2022-10-02T23:18:06.129Z,58.80
2022-10-02T23:20:43.930Z,59.00
2022-10-02T23:23:21.706Z,58.30
2022-10-02T23:25:57.488Z,57.80
2022-10-02T23:28:32.190Z,57.90
2022-10-02T23:31:18.212Z,57.60
2022-10-02T23:33:57.335Z,57.70
2022-10-02T23:36:37.021Z,57.50
2022-10-02T23:39:16.783Z,57.00
2022-10-02T23:41:53.242Z,56.70
2022-10-02T23:44:36.699Z,57.00
2022-10-02T23:47:25.360Z,57.60
2022-10-02T23:49:56.728Z,58.50
2022-10-02T23:53:17.786Z,62.90
2022-10-02T23:56:10.194Z,64.00
2022-10-02T23:59:01.013Z,63.10
